Etusivu
METAR-TAF:

METAR-TAF

Lentoasemat :

Kunming Changshuin kansainvälinen lentoasema

Kunming, Kiina

Leveyspiiri: 25-01N, Pituuspiiri: 102-41E, korkeus merenpinnasta: 1892 m

Tämänhetkinen sää

Tämä raportti tehtiin 58 minuuttia sitten, kello 08.00 UTC
Tuuli 19 kn lounaasta
Lämpötila 19°C
Kosteus 34%
Ilmanpaine 1020 hPa
Näkyvyys 10 km tai enemmän
Muutamia pilviä 3000 ft:n korkeudessa

METAR: ZPPP 190800Z 23010MPS 9999 FEW030 19/03 Q1020 NOSIG

Aika: 16:58 (08:58 UTC)

Sääennuste

Tämä raportti tehtiin 2 tuntia ja 57 minuuttia sitten, kello 06.01 UTC
Ennuste voimassa 19. päivästä klo 06 UTC - 20. päivään klo 06 UTC
Tuuli 23 kn lounaasta puuskistuen 33 kn:hen
Näkyvyys 10 km tai enemmän
ei pilviä alle 1500 m:ssä eikä cumulonimbus-pilviä
Tulossa
19. päivästä klo 09 UTC - 19. päivään klo 10 UTC
Tuuli 14 kn lounaasta

TAF: ZPPP 190601Z 1906/2006 22012G17MPS CAVOK TX20/1908Z TN07/1923Z BECMG 1909/1910 22007MPS

Säähavainnot ja -ennusteet yli 4000 lentoasemalta (METAR- ja TAF-raportit).

Käytössä olevat sääasemat on merkitty karttaan keltaisilla ja punaisilla pisteillä.

Aseta hiiri pisteen päälle nähdäksesi sääaseman nimen.

Klikkaa sitten nähdäksesi säähavainnot ja -ennusteet.

Kartan vaihtaminen: klikkaa mustalla rastilla varustettuja vihreitä pisteitä, niin voit zoomata sisään; viivalla varustettua vihreää pistettä, niin voit zoomata ulos tai vihreitä nuolia, niin pääset viereisille kartoille.


METAR-TAF: